createdAt,value
2017-11-26T09:33:10.214Z,982.1
2017-11-26T09:34:13.216Z,982.1
2017-11-26T09:35:16.659Z,982.2
2017-11-26T09:36:19.604Z,982.2
2017-11-26T09:37:22.383Z,982.3
2017-11-26T09:38:25.419Z,982.3
2017-11-26T09:39:28.210Z,982.3
2017-11-26T09:40:32.412Z,982.2
2017-11-26T09:41:35.933Z,982.3
2017-11-26T09:42:38.687Z,982.2
2017-11-26T09:43:42.472Z,982.3
2017-11-26T09:44:45.089Z,982.3
2017-11-26T09:45:47.787Z,982.3
2017-11-26T09:46:51.285Z,982.4
2017-11-26T09:47:57.618Z,982.3
2017-11-26T09:49:00.847Z,982.4
2017-11-26T09:50:11.579Z,982.3
2017-11-26T09:51:15.009Z,982.4
2017-11-26T09:52:18.105Z,982.4
2017-11-26T09:53:22.659Z,982.3
2017-11-26T09:54:25.330Z,982.4
2017-11-26T09:55:30.017Z,982.4
2017-11-26T09:56:33.795Z,982.4
2017-11-26T09:57:39.790Z,982.4
2017-11-26T09:58:46.102Z,982.5
2017-11-26T09:59:52.049Z,982.4
2017-11-26T10:00:59.366Z,982.4
2017-11-26T10:02:07.606Z,982.3
2017-11-26T10:03:16.192Z,982.4
2017-11-26T10:04:22.391Z,982.4
2017-11-26T10:05:27.660Z,982.3
2017-11-26T10:06:30.741Z,982.2
2017-11-26T10:07:38.874Z,982.4
2017-11-26T10:08:41.913Z,982.3
2017-11-26T10:09:51.787Z,982.3
2017-11-26T10:10:57.989Z,982.3
2017-11-26T10:12:02.884Z,982.3
2017-11-26T10:13:15.145Z,982.3
2017-11-26T10:14:25.209Z,982.3
2017-11-26T10:15:30.900Z,982.3
2017-11-26T10:16:35.073Z,982.2
2017-11-26T10:17:42.507Z,982.3
2017-11-26T10:18:48.299Z,982.2
2017-11-26T10:19:57.882Z,982.2
2017-11-26T10:21:07.621Z,982.3
2017-11-26T10:22:19.705Z,982.3
2017-11-26T10:23:25.795Z,982.3
2017-11-26T10:24:36.207Z,982.3
2017-11-26T10:25:43.609Z,982.3
2017-11-26T10:26:53.554Z,982.3
2017-11-26T10:28:03.445Z,982.2
2017-11-26T10:29:12.816Z,982.2
2017-11-26T10:30:24.056Z,982.3
2017-11-26T10:31:34.307Z,982.2
2017-11-26T10:32:42.738Z,982.1
2017-11-26T10:33:52.311Z,982.2
2017-11-26T10:36:27.860Z,982.2
2017-11-26T10:37:39.507Z,982.2
2017-11-26T10:38:51.769Z,982.2
2017-11-26T10:40:07.269Z,982.2
2017-11-26T10:41:23.146Z,982
2017-11-26T10:42:37.375Z,982
2017-11-26T10:43:51.996Z,982.2
2017-11-26T10:45:06.948Z,982.2
2017-11-26T10:46:19.980Z,982.2
2017-11-26T10:47:34.732Z,982.1
2017-11-26T10:48:45.599Z,982.1
2017-11-26T10:49:55.731Z,982
2017-11-26T10:51:08.344Z,982
2017-11-26T10:52:24.478Z,982
2017-11-26T10:53:35.619Z,982
2017-11-26T10:54:50.345Z,982
2017-11-26T10:56:04.270Z,982.1
2017-11-26T10:57:17.568Z,982
2017-11-26T10:58:30.531Z,982
2017-11-26T10:59:45.347Z,982
2017-11-26T11:01:02.470Z,981.9
2017-11-26T11:02:13.403Z,981.9
2017-11-26T11:03:28.155Z,981.8
2017-11-26T11:04:42.181Z,981.9
2017-11-26T11:05:52.329Z,981.9
2017-11-26T11:06:58.372Z,981.9
2017-11-26T11:08:09.282Z,981.8
2017-11-26T11:09:22.825Z,981.8
2017-11-26T11:10:35.816Z,981.8
2017-11-26T11:11:49.335Z,981.8
2017-11-26T11:13:01.222Z,981.8
2017-11-26T11:14:14.641Z,981.8
2017-11-26T11:15:28.352Z,981.8
2017-11-26T11:16:41.877Z,981.7
2017-11-26T11:17:56.077Z,981.8
2017-11-26T11:19:15.246Z,981.9
2017-11-26T11:20:27.780Z,981.9
2017-11-26T11:21:41.598Z,981.9
2017-11-26T11:22:52.732Z,981.9
2017-11-26T11:24:05.652Z,981.9
2017-11-26T11:25:24.695Z,982
2017-11-26T11:26:41.103Z,981.9
2017-11-26T11:27:57.837Z,981.9
2017-11-26T11:29:08.919Z,982
2017-11-26T11:30:26.574Z,981.9
2017-11-26T11:31:38.849Z,982
2017-11-26T11:34:07.732Z,982
2017-11-26T11:35:24.685Z,982
2017-11-26T11:36:36.201Z,982
2017-11-26T11:37:48.198Z,982
2017-11-26T11:38:59.745Z,982
2017-11-26T11:40:16.394Z,982
2017-11-26T11:41:28.256Z,982
2017-11-26T11:42:41.900Z,982
2017-11-26T11:43:56.888Z,981.9
2017-11-26T11:45:17.954Z,981.9
2017-11-26T11:46:30.884Z,982
2017-11-26T11:47:43.399Z,981.7
2017-11-26T11:48:57.389Z,981.7
2017-11-26T11:50:13.896Z,981.8
2017-11-26T11:51:27.120Z,981.8
2017-11-26T11:52:41.462Z,981.9
2017-11-26T11:54:03.496Z,981.9
2017-11-26T11:55:21.338Z,981.9
2017-11-26T11:56:38.288Z,981.8
2017-11-26T11:57:53.700Z,981.9
2017-11-26T11:59:15.572Z,981.9
2017-11-26T12:00:38.749Z,981.9
2017-11-26T12:01:51.397Z,982
2017-11-26T12:03:06.765Z,981.9
2017-11-26T12:04:23.801Z,981.9
2017-11-26T12:05:38.807Z,981.9
2017-11-26T12:06:48.711Z,981.9
2017-11-26T12:07:58.913Z,981.9
2017-11-26T12:09:12.340Z,981.9
2017-11-26T12:10:26.866Z,981.8
2017-11-26T12:11:44.953Z,982
2017-11-26T12:13:01.145Z,982
2017-11-26T12:14:13.542Z,982.1
2017-11-26T12:15:31.820Z,982.1
2017-11-26T12:16:41.629Z,982.1
2017-11-26T12:17:57.837Z,982.1
2017-11-26T12:19:10.391Z,982
2017-11-26T12:20:25.357Z,982
2017-11-26T12:21:34.651Z,982
2017-11-26T12:22:47.343Z,982
2017-11-26T12:23:58.775Z,982.1
2017-11-26T12:25:32.633Z,982
2017-11-26T12:26:46.988Z,982
2017-11-26T12:27:59.792Z,981.9
2017-11-26T12:29:17.509Z,982
2017-11-26T12:30:32.170Z,982
2017-11-26T12:31:45.838Z,982
2017-11-26T12:33:01.801Z,982
2017-11-26T12:34:14.095Z,982
2017-11-26T12:35:25.173Z,982.1
2017-11-26T12:36:37.332Z,982.1
2017-11-26T12:37:57.612Z,981.9
2017-11-26T12:39:18.530Z,982.1
2017-11-26T12:40:33.189Z,982
2017-11-26T12:41:50.703Z,982
2017-11-26T12:43:05.727Z,982.1
2017-11-26T12:44:24.707Z,982.1
2017-11-26T12:45:44.701Z,982.1
2017-11-26T12:47:03.859Z,982
2017-11-26T12:48:29.964Z,982.2
2017-11-26T12:49:41.302Z,982.1
2017-11-26T12:50:59.976Z,982.2
2017-11-26T12:52:21.469Z,982.2
2017-11-26T12:53:35.029Z,982.2
2017-11-26T12:54:52.509Z,982.2
2017-11-26T12:56:10.097Z,982.2
2017-11-26T12:57:22.608Z,982.2
2017-11-26T12:58:38.196Z,982.2
2017-11-26T12:59:50.853Z,982.2
2017-11-26T13:01:10.640Z,982.1
2017-11-26T13:02:29.897Z,982.2
2017-11-26T13:03:48.378Z,982.2
2017-11-26T13:05:08.461Z,982.2
2017-11-26T13:06:24.472Z,982.2
2017-11-26T13:07:37.572Z,982.2
2017-11-26T13:08:50.246Z,982.2
2017-11-26T13:10:17.000Z,982.2
2017-11-26T13:11:31.866Z,982
2017-11-26T13:12:45.671Z,982.2
2017-11-26T13:15:28.481Z,982.3
2017-11-26T13:16:44.661Z,982.2
2017-11-26T13:18:01.561Z,982.2
2017-11-26T13:19:18.014Z,982.2
2017-11-26T13:20:35.703Z,982.2
2017-11-26T13:21:48.855Z,982.2
2017-11-26T13:23:01.946Z,982
2017-11-26T13:24:14.658Z,982.2
2017-11-26T13:25:27.728Z,982.2
2017-11-26T13:26:48.066Z,982.2
2017-11-26T13:29:21.701Z,982.2
2017-11-26T13:30:51.758Z,982.2
2017-11-26T13:32:08.583Z,982.2
2017-11-26T13:33:26.510Z,982.2
2017-11-26T13:34:51.926Z,982.2
2017-11-26T13:36:11.408Z,982.3
2017-11-26T13:37:26.618Z,982.2
2017-11-26T13:38:44.700Z,982.2
2017-11-26T13:40:01.120Z,982.2
2017-11-26T13:41:12.939Z,982.3
2017-11-26T13:42:36.207Z,982.2
2017-11-26T13:43:49.997Z,982.3
2017-11-26T13:46:30.072Z,982.2
2017-11-26T13:47:48.747Z,982.3
2017-11-26T13:49:05.390Z,982.3
2017-11-26T13:50:23.562Z,982.4
2017-11-26T13:51:39.886Z,982.4
2017-11-26T13:52:52.970Z,982.4
2017-11-26T13:54:06.513Z,982.4
2017-11-26T13:55:20.108Z,982.4
2017-11-26T13:56:35.832Z,982.5
2017-11-26T13:57:48.630Z,982.5
2017-11-26T13:59:09.475Z,982.5
2017-11-26T14:00:27.789Z,982.6
2017-11-26T14:01:58.304Z,982.6
2017-11-26T14:03:19.096Z,982.6
2017-11-26T14:04:40.756Z,982.6
2017-11-26T14:05:57.215Z,982.6
2017-11-26T14:07:19.863Z,982.6
2017-11-26T14:08:38.932Z,982.6
2017-11-26T14:10:00.727Z,982.6
2017-11-26T14:11:21.253Z,982.6
2017-11-26T14:12:39.737Z,982.6
2017-11-26T14:14:00.559Z,982.6
2017-11-26T14:15:55.819Z,982.6
2017-11-26T14:17:16.954Z,982.6
2017-11-26T14:19:56.542Z,982.6
2017-11-26T14:21:18.530Z,982.6
2017-11-26T14:22:42.491Z,982.7
2017-11-26T14:25:23.850Z,982.7
2017-11-26T14:28:22.351Z,982.7
2017-11-26T14:29:34.432Z,982.7
2017-11-26T14:30:58.142Z,982.7
2017-11-26T14:32:25.721Z,982.7
2017-11-26T14:33:42.984Z,982.7
2017-11-26T14:37:44.243Z,982.7
2017-11-26T14:38:57.209Z,982.7
2017-11-26T14:40:19.457Z,982.6
2017-11-26T14:41:36.797Z,982.7
2017-11-26T14:42:59.233Z,982.7
2017-11-26T14:44:14.120Z,982.7
2017-11-26T14:45:30.979Z,982.8
2017-11-26T14:46:46.147Z,982.8
2017-11-26T14:48:01.173Z,982.8
2017-11-26T14:49:23.545Z,982.7
2017-11-26T14:50:38.604Z,982.8
2017-11-26T14:51:57.382Z,982.8
2017-11-26T14:53:11.026Z,982.8
2017-11-26T14:54:28.554Z,982.8
2017-11-26T14:55:45.363Z,982.8
2017-11-26T14:56:58.082Z,982.6
2017-11-26T14:58:15.488Z,982.8
2017-11-26T14:59:44.112Z,982.8
2017-11-26T15:02:30.496Z,982.9
2017-11-26T15:03:45.298Z,982.8
2017-11-26T15:05:06.882Z,982.9
2017-11-26T15:06:17.785Z,982.8
2017-11-26T15:07:38.334Z,982.8
2017-11-26T15:10:23.940Z,982.8
2017-11-26T15:11:38.472Z,982.9
2017-11-26T15:12:53.104Z,982.9
2017-11-26T15:14:14.712Z,982.8
2017-11-26T15:15:34.821Z,982.8
2017-11-26T15:16:49.001Z,982.8
2017-11-26T15:18:08.784Z,982.9
2017-11-26T15:19:25.889Z,982.8
2017-11-26T15:20:45.858Z,982.9
2017-11-26T15:22:01.258Z,982.9
2017-11-26T15:24:38.015Z,982.9
2017-11-26T15:25:58.710Z,982.9
2017-11-26T15:27:15.186Z,982.9
2017-11-26T15:28:32.179Z,982.9
2017-11-26T15:29:52.957Z,982.9
2017-11-26T15:31:12.884Z,982.9
2017-11-26T15:32:35.504Z,983
2017-11-26T15:33:52.946Z,982.8
2017-11-26T15:36:33.531Z,983
2017-11-26T15:39:27.567Z,983
2017-11-26T15:40:54.641Z,982.9
2017-11-26T15:42:20.070Z,983
2017-11-26T15:43:34.817Z,982.9
2017-11-26T15:44:49.310Z,982.8
2017-11-26T15:45:58.607Z,983
2017-11-26T15:47:16.243Z,983
2017-11-26T15:48:30.228Z,983
2017-11-26T15:49:46.239Z,983
2017-11-26T15:50:58.193Z,983
2017-11-26T15:52:07.554Z,983
2017-11-26T15:53:27.356Z,983
2017-11-26T15:54:53.054Z,983.1
2017-11-26T15:56:08.328Z,983.1
2017-11-26T15:57:28.218Z,982.9
2017-11-26T15:58:45.357Z,983.2
2017-11-26T15:59:59.264Z,983
2017-11-26T16:01:23.901Z,983.2
2017-11-26T16:02:44.822Z,983.2
2017-11-26T16:04:10.461Z,983.2
2017-11-26T16:05:31.314Z,983.2
2017-11-26T16:06:44.111Z,983.2
2017-11-26T16:08:09.050Z,983.2
2017-11-26T16:09:23.160Z,983.2
2017-11-26T16:10:38.217Z,983.2
2017-11-26T16:11:54.297Z,983.1
2017-11-26T16:13:08.622Z,983.2
2017-11-26T16:14:25.680Z,983.2
2017-11-26T16:15:44.628Z,983.2
2017-11-26T16:17:01.211Z,983.2
2017-11-26T16:19:31.530Z,983.1
2017-11-26T16:20:48.311Z,983.3
2017-11-26T16:22:05.104Z,983.3
2017-11-26T16:23:18.304Z,983.4
2017-11-26T16:24:33.931Z,983.1
2017-11-26T16:25:48.590Z,983.4
2017-11-26T16:26:59.151Z,983.3
2017-11-26T16:28:16.602Z,983.3
2017-11-26T16:29:31.443Z,983.3
2017-11-26T16:31:02.435Z,983.1
2017-11-26T16:32:15.340Z,983.3
2017-11-26T16:33:39.713Z,983.3
2017-11-26T16:34:57.553Z,983.3
2017-11-26T16:36:15.644Z,983.3
2017-11-26T16:37:32.835Z,983.1
2017-11-26T16:38:51.962Z,983.4
2017-11-26T16:40:28.419Z,983.3
2017-11-26T16:41:50.305Z,983.3
2017-11-26T16:43:07.221Z,983.2
2017-11-26T16:44:24.902Z,983.3
2017-11-26T16:45:52.432Z,983.4
2017-11-26T16:47:12.057Z,983.4
2017-11-26T16:49:47.159Z,983.3
2017-11-26T16:51:04.602Z,983.4
2017-11-26T16:52:32.780Z,983.4
2017-11-26T16:53:48.846Z,983.4
2017-11-26T16:55:14.935Z,983.5
2017-11-26T16:56:35.183Z,983.4
2017-11-26T16:57:54.101Z,983.5
2017-11-26T16:59:12.476Z,983.5
2017-11-26T17:00:34.649Z,983.5
2017-11-26T17:04:38.656Z,983.5
2017-11-26T17:06:08.245Z,983.5
2017-11-26T17:09:12.000Z,983.5
2017-11-26T17:10:29.778Z,983.6
2017-11-26T17:11:43.432Z,983.6
2017-11-26T17:13:03.093Z,983.5
2017-11-26T17:14:20.206Z,983.5
2017-11-26T17:15:37.021Z,983.6
2017-11-26T17:16:50.640Z,983.5
2017-11-26T17:18:05.518Z,983.4
2017-11-26T17:19:29.214Z,983.6
2017-11-26T17:20:51.616Z,983.6
2017-11-26T17:22:07.358Z,983.6
2017-11-26T17:23:26.468Z,983.6
2017-11-26T17:24:43.103Z,983.7
2017-11-26T17:26:03.106Z,983.6
2017-11-26T17:27:22.255Z,983.7
2017-11-26T17:28:36.858Z,983.7
2017-11-26T17:30:01.114Z,983.7
2017-11-26T17:31:16.991Z,983.7
2017-11-26T17:32:31.728Z,983.7
2017-11-26T17:33:47.270Z,983.6
2017-11-26T17:35:06.000Z,983.7
2017-11-26T17:36:20.550Z,983.7
2017-11-26T17:37:36.883Z,983.8
2017-11-26T17:38:48.357Z,983.8
2017-11-26T17:41:23.437Z,983.8
2017-11-26T17:42:44.129Z,983.9
2017-11-26T17:47:00.563Z,983.8
2017-11-26T17:48:17.914Z,983.8
2017-11-26T17:49:35.314Z,983.9
2017-11-26T17:50:50.631Z,983.9
2017-11-26T17:52:03.772Z,983.9
2017-11-26T17:53:24.620Z,983.8
2017-11-26T17:54:37.619Z,983.9
2017-11-26T17:55:50.228Z,983.9
2017-11-26T17:57:06.553Z,984
2017-11-26T17:58:19.471Z,983.9
2017-11-26T17:59:28.743Z,983.9
2017-11-26T18:00:48.472Z,983.9
2017-11-26T18:02:02.470Z,983.9
2017-11-26T18:03:23.312Z,983.9
2017-11-26T18:04:46.617Z,983.9
2017-11-26T18:06:03.452Z,983.9
2017-11-26T18:07:25.276Z,984
2017-11-26T18:08:45.579Z,984
2017-11-26T18:10:01.704Z,983.9
2017-11-26T18:11:29.132Z,984.1
2017-11-26T18:12:44.247Z,984
2017-11-26T18:13:59.770Z,984
2017-11-26T18:15:22.728Z,984
2017-11-26T18:16:36.996Z,984
2017-11-26T18:17:55.868Z,983.9
2017-11-26T18:19:22.975Z,984
2017-11-26T18:20:47.014Z,984
2017-11-26T18:22:00.079Z,983.9
2017-11-26T18:23:23.355Z,984
2017-11-26T18:24:39.344Z,984.1
2017-11-26T18:25:53.916Z,984
2017-11-26T18:27:08.373Z,984
2017-11-26T18:28:25.880Z,984
2017-11-26T18:29:45.370Z,984.1
2017-11-26T18:30:59.147Z,984
2017-11-26T18:32:12.867Z,984.1
2017-11-26T18:33:26.080Z,984.1
2017-11-26T18:34:51.417Z,984
2017-11-26T18:36:07.266Z,983.9
2017-11-26T18:37:16.721Z,984
2017-11-26T18:38:33.897Z,984
2017-11-26T18:39:48.069Z,984.1
2017-11-26T18:41:00.937Z,984.1
2017-11-26T18:42:14.242Z,984.1
2017-11-26T18:43:43.003Z,984.1
2017-11-26T18:44:55.906Z,984.1
2017-11-26T18:46:06.117Z,984.2
2017-11-26T18:47:23.154Z,984.2
2017-11-26T18:48:34.678Z,984.2
2017-11-26T18:49:54.174Z,984.1
2017-11-26T18:51:05.216Z,984.3
2017-11-26T18:52:15.128Z,984.2
2017-11-26T18:53:28.024Z,984.3
2017-11-26T18:54:44.618Z,984.3
2017-11-26T18:56:02.738Z,984.3
2017-11-26T18:57:15.054Z,984.3
2017-11-26T18:58:32.696Z,984.3
2017-11-26T18:59:48.435Z,984.2
2017-11-26T19:00:58.569Z,984.1
2017-11-26T19:02:11.154Z,984.3
2017-11-26T19:03:20.802Z,984.3
2017-11-26T19:04:34.278Z,984.3
2017-11-26T19:05:45.452Z,984.4
2017-11-26T19:06:57.870Z,984.4
2017-11-26T19:08:22.486Z,984.4
2017-11-26T19:09:44.618Z,984.4
2017-11-26T19:11:03.027Z,984.4
2017-11-26T19:12:24.835Z,984.4
2017-11-26T19:13:46.567Z,984.4
2017-11-26T19:15:00.662Z,984.2
2017-11-26T19:16:18.176Z,984.4
2017-11-26T19:17:36.459Z,984.4
2017-11-26T19:18:51.574Z,984.4
2017-11-26T19:22:56.104Z,984.5
2017-11-26T19:24:09.446Z,984.5
2017-11-26T19:25:24.307Z,984.5
2017-11-26T19:26:36.364Z,984.6
2017-11-26T19:27:53.082Z,984.6
2017-11-26T19:29:08.865Z,984.5
2017-11-26T19:30:22.312Z,984.5
2017-11-26T19:31:34.875Z,984.5
2017-11-26T19:32:46.049Z,984.6
2017-11-26T19:33:57.223Z,984.6
2017-11-26T19:35:17.988Z,984.6
2017-11-26T19:36:27.917Z,984.6
2017-11-26T19:37:37.792Z,984.4
2017-11-26T19:38:49.398Z,984.6
2017-11-26T19:40:06.490Z,984.6
2017-11-26T19:41:18.687Z,984.4
2017-11-26T19:42:23.648Z,984.7
2017-11-26T19:43:30.659Z,984.6
2017-11-26T19:44:41.743Z,984.6
2017-11-26T19:45:56.589Z,984.6
2017-11-26T19:47:17.933Z,984.7
2017-11-26T19:48:29.513Z,984.5
2017-11-26T19:49:40.396Z,984.6
2017-11-26T19:50:49.200Z,984.7
2017-11-26T19:52:05.997Z,984.7
2017-11-26T19:53:13.323Z,984.7
2017-11-26T19:54:25.192Z,984.7
2017-11-26T19:55:38.536Z,984.7
2017-11-26T19:56:50.796Z,984.7
2017-11-26T19:58:00.180Z,984.7
2017-11-26T19:59:12.625Z,984.6
2017-11-26T20:00:34.728Z,984.7
2017-11-26T20:01:51.868Z,984.7
2017-11-26T20:03:08.530Z,984.7
2017-11-26T20:04:17.740Z,984.7
2017-11-26T20:05:28.589Z,984.7
2017-11-26T20:06:37.617Z,984.7
2017-11-26T20:07:48.055Z,984.7
2017-11-26T20:08:56.011Z,984.7
2017-11-26T20:10:16.971Z,984.8
2017-11-26T20:11:22.517Z,984.8
2017-11-26T20:12:27.038Z,984.8
2017-11-26T20:13:36.589Z,984.8
2017-11-26T20:14:43.663Z,984.8
2017-11-26T20:15:55.046Z,984.8
2017-11-26T20:17:04.409Z,984.7
2017-11-26T20:18:13.825Z,984.7
2017-11-26T20:19:29.556Z,984.7
2017-11-26T20:20:45.317Z,984.7
2017-11-26T20:22:01.240Z,984.7
2017-11-26T20:23:15.527Z,984.7
2017-11-26T20:24:37.115Z,984.6
2017-11-26T20:25:52.489Z,984.7
2017-11-26T20:27:18.406Z,984.6
2017-11-26T20:30:01.304Z,984.7
2017-11-26T20:31:27.015Z,984.7
2017-11-26T20:32:41.942Z,984.7
2017-11-26T20:34:04.436Z,984.7
2017-11-26T20:35:34.050Z,984.6
2017-11-26T20:36:49.173Z,984.7
2017-11-26T20:38:08.104Z,984.7
2017-11-26T20:39:22.048Z,984.7
2017-11-26T20:40:36.502Z,984.7
2017-11-26T20:41:49.210Z,984.6
2017-11-26T20:43:07.167Z,984.6
2017-11-26T20:44:26.752Z,984.6
2017-11-26T20:45:42.681Z,984.6
2017-11-26T20:46:55.226Z,984.6
2017-11-26T20:48:05.409Z,984.7
2017-11-26T20:49:25.066Z,984.7
2017-11-26T20:50:45.545Z,984.7
2017-11-26T20:52:06.858Z,984.6
2017-11-26T20:53:21.814Z,984.6
2017-11-26T20:54:37.918Z,984.6
2017-11-26T20:55:54.372Z,984.6
2017-11-26T20:57:11.008Z,984.6
2017-11-26T20:58:29.323Z,984.6
2017-11-26T20:59:46.004Z,984.6
2017-11-26T21:00:59.135Z,984.6
2017-11-26T21:02:16.466Z,984.7
2017-11-26T21:03:29.516Z,984.7
2017-11-26T21:04:41.151Z,984.7
2017-11-26T21:05:59.036Z,984.6
2017-11-26T21:07:11.816Z,984.6
2017-11-26T21:08:23.356Z,984.6
2017-11-26T21:09:35.978Z,984.7
2017-11-26T21:10:49.866Z,984.6
2017-11-26T21:12:01.728Z,984.7
2017-11-26T21:13:10.128Z,984.7
2017-11-26T21:14:20.052Z,984.7
2017-11-26T21:15:29.232Z,984.7
2017-11-26T21:16:46.394Z,984.6
2017-11-26T21:18:02.588Z,984.6
2017-11-26T21:19:14.913Z,984.6
2017-11-26T21:20:30.528Z,984.6
2017-11-26T21:21:48.201Z,984.6
2017-11-26T21:23:03.656Z,984.6
2017-11-26T21:24:21.855Z,984.6
2017-11-26T21:25:42.021Z,984.6
2017-11-26T21:27:02.426Z,984.6
2017-11-26T21:28:21.384Z,984.6
2017-11-26T21:29:37.034Z,984.6
2017-11-26T21:30:50.879Z,984.4
2017-11-26T21:32:06.234Z,984.6
2017-11-26T21:33:18.259Z,984.6
2017-11-26T21:34:33.318Z,984.6
2017-11-26T21:35:48.563Z,984.6
2017-11-26T21:37:06.011Z,984.6
2017-11-26T21:38:27.128Z,984.6
2017-11-26T21:39:43.400Z,984.6
2017-11-26T21:40:50.448Z,984.6
2017-11-26T21:41:56.259Z,984.6
2017-11-26T21:43:02.673Z,984.7
2017-11-26T21:44:10.812Z,984.7
2017-11-26T21:45:15.633Z,984.7
2017-11-26T21:46:20.528Z,984.7
2017-11-26T21:47:24.117Z,984.7
2017-11-26T21:48:27.561Z,984.7
2017-11-26T21:49:31.781Z,984.7
2017-11-26T21:50:35.964Z,984.7
2017-11-26T21:51:39.717Z,984.6
2017-11-26T21:52:43.721Z,984.7
2017-11-26T21:53:47.105Z,984.6
2017-11-26T21:54:50.418Z,984.6
2017-11-26T21:55:54.018Z,984.7
2017-11-26T21:56:57.327Z,984.6
2017-11-26T21:58:00.609Z,984.5
2017-11-26T21:59:04.145Z,984.6
2017-11-26T22:00:15.858Z,984.6
2017-11-26T22:01:25.369Z,984.6
2017-11-26T22:02:28.697Z,984.7
2017-11-26T22:03:32.226Z,984.7
2017-11-26T22:04:35.845Z,984.7
2017-11-26T22:07:48.286Z,984.7
2017-11-26T22:08:51.228Z,984.7
2017-11-26T22:09:53.791Z,984.7
2017-11-26T22:10:56.386Z,984.7
2017-11-26T22:11:58.976Z,984.6
2017-11-26T22:13:01.747Z,984.6
2017-11-26T22:14:04.978Z,984.6
2017-11-26T22:15:10.782Z,984.7
2017-11-26T22:16:15.640Z,984.7
2017-11-26T22:17:18.285Z,984.6
2017-11-26T22:18:21.279Z,984.6
2017-11-26T22:19:24.224Z,984.6
2017-11-26T22:20:27.583Z,984.6
2017-11-26T22:21:30.394Z,984.7
2017-11-26T22:22:33.324Z,984.6
2017-11-26T22:23:36.251Z,984.6
2017-11-26T22:24:38.799Z,984.6
2017-11-26T22:25:41.464Z,984.6
2017-11-26T22:26:44.085Z,984.7
2017-11-26T22:27:46.640Z,984.7
2017-11-26T22:28:49.334Z,984.6
2017-11-26T22:29:52.091Z,984.7
2017-11-26T22:30:55.041Z,984.6
2017-11-26T22:31:57.842Z,984.6
2017-11-26T22:33:00.597Z,984.6
2017-11-26T22:34:03.301Z,984.7
2017-11-26T22:35:08.697Z,984.6
2017-11-26T22:36:13.074Z,984.7
2017-11-26T22:37:15.697Z,984.7
2017-11-26T22:38:18.372Z,984.7
2017-11-26T22:39:21.188Z,984.7
2017-11-26T22:40:23.922Z,984.7
2017-11-26T22:41:26.484Z,984.7
2017-11-26T22:42:29.112Z,984.7
2017-11-26T22:43:31.726Z,984.7
2017-11-26T22:44:34.292Z,984.6
2017-11-26T22:45:36.984Z,984.7
2017-11-26T22:46:39.522Z,984.8
2017-11-26T22:47:42.181Z,984.7
2017-11-26T22:48:44.733Z,984.7
2017-11-26T22:49:47.300Z,984.7
2017-11-26T22:50:49.933Z,984.7
2017-11-26T22:51:52.521Z,984.6
2017-11-26T22:52:55.131Z,984.6
2017-11-26T22:53:57.628Z,984.6
2017-11-26T22:55:00.256Z,984.6
2017-11-26T22:56:02.871Z,984.6
2017-11-26T22:57:05.822Z,984.6
2017-11-26T22:58:08.373Z,984.6
2017-11-26T22:59:11.038Z,984.5
2017-11-26T23:00:17.314Z,984.6
2017-11-26T23:01:20.093Z,984.6
2017-11-26T23:02:22.886Z,984.6
2017-11-26T23:03:25.542Z,984.6
2017-11-26T23:04:28.196Z,984.7
2017-11-26T23:05:30.853Z,984.7
2017-11-26T23:06:33.390Z,984.7
2017-11-26T23:07:35.956Z,984.7
2017-11-26T23:08:38.573Z,984.7
2017-11-26T23:09:41.175Z,984.7
2017-11-26T23:10:43.771Z,984.7
2017-11-26T23:11:46.423Z,984.7
2017-11-26T23:12:48.886Z,984.7
2017-11-26T23:13:51.550Z,984.6
2017-11-26T23:14:54.055Z,984.7
2017-11-26T23:15:56.622Z,984.7
2017-11-26T23:16:59.822Z,984.6
2017-11-26T23:18:03.259Z,984.6
2017-11-26T23:19:05.815Z,984.6
2017-11-26T23:20:09.702Z,984.6
2017-11-26T23:21:14.087Z,984.6
2017-11-26T23:22:16.791Z,984.6
2017-11-26T23:23:19.417Z,984.6
2017-11-26T23:24:22.117Z,984.6
2017-11-26T23:25:24.638Z,984.6
2017-11-26T23:26:27.270Z,984.6
2017-11-26T23:27:29.857Z,984.7
2017-11-26T23:28:32.664Z,984.6
2017-11-26T23:29:35.206Z,984.6
2017-11-26T23:30:38.028Z,984.6
2017-11-26T23:31:42.094Z,984.6
2017-11-26T23:32:44.710Z,984.6
2017-11-26T23:33:47.200Z,984.6
2017-11-26T23:34:49.767Z,984.6
2017-11-26T23:35:52.459Z,984.5
2017-11-26T23:36:54.978Z,984.6
2017-11-26T23:37:57.586Z,984.6
2017-11-26T23:39:00.212Z,984.6
2017-11-26T23:40:06.547Z,984.4
2017-11-26T23:41:09.079Z,984.5
2017-11-26T23:42:15.911Z,984.4
2017-11-26T23:43:18.600Z,984.4
2017-11-26T23:44:21.325Z,984.5
2017-11-26T23:45:23.994Z,984.5
2017-11-26T23:46:26.637Z,984.5
2017-11-26T23:47:29.289Z,984.5
2017-11-26T23:48:31.909Z,984.5
2017-11-26T23:49:34.602Z,984.5
2017-11-26T23:50:37.216Z,984.4
2017-11-26T23:51:40.040Z,984.4
2017-11-26T23:52:42.571Z,984.5
2017-11-26T23:53:45.109Z,984.5
2017-11-26T23:54:47.666Z,984.5
2017-11-26T23:55:50.152Z,984.4
2017-11-26T23:56:52.621Z,984.5
2017-11-26T23:57:55.185Z,984.5
2017-11-26T23:58:57.734Z,984.3
